Time;durP1;ratioP1;P1;durP2;ratioP2;P2;SDS_P1;SDS_P2;PMS_P1;PMS_P2;Temp;Humidity;BMP_temperature;BMP_pressure;BME280_temperature;BME280_humidity;BME280_pressure;Samples;Min_cycle;Max_cycle;Signal;HPM_P1;HPM_P2
2022/05/21 00:02:16;;;;;;;4.97;4.47;;;;;;;;;;6243479;23;20772;-58
2022/05/21 00:04:42;;;;;;;5.63;4.70;;;;;;;;;;6211121;23;20386;-56
2022/05/21 00:07:10;;;;;;;6.53;4.27;;;;;;;;;;6241256;23;20422;-56
2022/05/21 00:09:36;;;;;;;5.13;4.13;;;;;;;;;;6227481;22;21011;-55
2022/05/21 00:12:02;;;;;;;6.00;4.00;;;;;;;;;;6242256;23;20410;-55
2022/05/21 00:14:28;;;;;;;5.80;5.20;;;;;;;;;;6234218;23;20397;-55
2022/05/21 00:16:55;;;;;;;5.00;4.50;;;;;;;;;;6236869;23;20390;-55
2022/05/21 00:19:27;;;;;;;5.23;4.73;;;;;;;;;;6233297;23;20882;-55
2022/05/21 00:21:53;;;;;;;6.87;5.00;;;;;;;;;;6238572;23;20370;-55
2022/05/21 00:24:19;;;;;;;4.20;3.73;;;;;;;;;;6242103;23;20374;-55
2022/05/21 00:26:45;;;;;;;4.60;4.03;;;;;;;;;;6228676;23;20429;-56
2022/05/21 00:29:11;;;;;;;4.17;3.40;;;;;;;;;;6239843;22;20373;-54
2022/05/21 00:31:37;;;;;;;4.40;3.77;;;;;;;;;;6198757;23;20477;-54
2022/05/21 00:34:03;;;;;;;4.67;3.57;;;;;;;;;;6242905;23;20759;-54
2022/05/21 00:36:36;;;;;;;6.30;3.30;;;;;;;;;;6237867;23;20718;-54
2022/05/21 00:39:02;;;;;;;3.70;3.30;;;;;;;;;;6240557;23;20383;-55
2022/05/21 00:41:28;;;;;;;4.27;3.70;;;;;;;;;;6224748;23;20722;-55
2022/05/21 00:43:58;;;;;;;4.50;3.97;;;;;;;;;;6241117;23;20867;-55
2022/05/21 00:46:26;;;;;;;6.30;3.50;;;;;;;;;;6235153;23;20430;-55
2022/05/21 00:48:55;;;;;;;9.83;4.00;;;;;;;;;;6241251;23;20667;-55
2022/05/21 00:51:22;;;;;;;4.33;3.60;;;;;;;;;;6218018;23;20883;-56
2022/05/21 00:53:49;;;;;;;4.93;3.50;;;;;;;;;;6234858;23;20386;-56
2022/05/21 00:56:33;;;;;;;7.03;3.63;;;;;;;;;;6235098;23;20369;-56
2022/05/21 01:01:51;;;;;;;4.10;3.43;;;;;;;;;;6228573;23;20382;-56
2022/05/21 01:04:17;;;;;;;5.23;3.37;;;;;;;;;;6236925;23;20406;-55
2022/05/21 01:06:43;;;;;;;7.60;3.60;;;;;;;;;;6238084;23;20434;-56
2022/05/21 01:09:09;;;;;;;4.73;3.43;;;;;;;;;;6240136;23;20924;-55
2022/05/21 01:12:04;;;;;;;5.17;3.90;;;;;;;;;;6214890;23;20448;-56
2022/05/21 01:14:31;;;;;;;4.07;3.60;;;;;;;;;;6238157;22;20417;-55
2022/05/21 01:17:03;;;;;;;4.00;3.57;;;;;;;;;;6237293;23;20723;-56
2022/05/21 01:19:30;;;;;;;6.73;3.50;;;;;;;;;;6216890;23;20394;-57
2022/05/21 01:22:18;;;;;;;4.27;3.37;;;;;;;;;;6210609;23;20382;-55
2022/05/21 01:24:45;;;;;;;5.80;3.03;;;;;;;;;;6238707;22;20382;-54
2022/05/21 01:27:11;;;;;;;3.43;2.90;;;;;;;;;;6242268;23;20513;-54
2022/05/21 01:29:37;;;;;;;3.50;3.20;;;;;;;;;;6229048;23;20385;-55
2022/05/21 01:32:05;;;;;;;4.57;3.90;;;;;;;;;;6240592;22;20155;-55
2022/05/21 01:34:30;;;;;;;3.17;2.60;;;;;;;;;;6227496;22;20375;-55
2022/05/21 01:36:56;;;;;;;3.03;2.73;;;;;;;;;;6243411;23;20386;-55
2022/05/21 01:39:22;;;;;;;5.07;3.03;;;;;;;;;;6237302;23;20370;-55
2022/05/21 01:41:50;;;;;;;3.60;2.40;;;;;;;;;;6239776;23;20384;-55
2022/05/21 01:47:01;;;;;;;3.60;3.20;;;;;;;;;;6240968;23;20480;-55
2022/05/21 01:49:27;;;;;;;3.30;3.00;;;;;;;;;;6229077;23;20374;-55
2022/05/21 01:51:53;;;;;;;3.10;2.80;;;;;;;;;;6244158;23;20370;-55
2022/05/21 01:54:19;;;;;;;2.90;2.60;;;;;;;;;;6213678;23;20433;-55
2022/05/21 01:56:45;;;;;;;3.83;3.00;;;;;;;;;;6216390;23;20386;-54
2022/05/21 01:59:11;;;;;;;4.20;3.30;;;;;;;;;;6227160;23;20632;-54
2022/05/21 02:01:37;;;;;;;5.20;3.10;;;;;;;;;;6242134;23;20456;-55
2022/05/21 02:04:03;;;;;;;4.90;3.20;;;;;;;;;;6226820;23;20225;-54
2022/05/21 02:06:29;;;;;;;4.60;2.90;;;;;;;;;;6241720;23;20434;-55
2022/05/21 02:08:55;;;;;;;11.03;3.57;;;;;;;;;;6232108;23;21177;-56
2022/05/21 02:11:21;;;;;;;3.20;2.90;;;;;;;;;;6243712;23;20370;-54
2022/05/21 02:14:01;;;;;;;5.07;3.80;;;;;;;;;;6241650;23;20152;-56
2022/05/21 02:16:28;;;;;;;3.50;3.10;;;;;;;;;;6243808;23;20209;-54
2022/05/21 02:18:54;;;;;;;3.17;2.87;;;;;;;;;;6232550;22;20909;-54
2022/05/21 02:21:20;;;;;;;3.70;3.20;;;;;;;;;;6244322;23;20465;-54
2022/05/21 02:23:46;;;;;;;3.60;3.00;;;;;;;;;;6241608;23;20438;-54
2022/05/21 02:26:12;;;;;;;3.67;3.10;;;;;;;;;;6217567;23;20438;-55
2022/05/21 02:29:06;;;;;;;8.17;3.10;;;;;;;;;;6241324;23;20366;-55
2022/05/21 02:31:37;;;;;;;3.70;3.40;;;;;;;;;;6230877;23;20385;-59
2022/05/21 02:34:30;;;;;;;5.30;3.20;;;;;;;;;;6242740;23;20375;-54
2022/05/21 02:39:49;;;;;;;4.00;2.90;;;;;;;;;;6240365;23;20381;-54
2022/05/21 02:45:00;;;;;;;5.03;3.37;;;;;;;;;;6229166;23;20967;-55
2022/05/21 02:47:26;;;;;;;5.03;3.40;;;;;;;;;;6241815;23;20441;-55
2022/05/21 02:49:52;;;;;;;4.70;3.73;;;;;;;;;;6227101;23;20389;-55
2022/05/21 02:52:18;;;;;;;6.23;3.20;;;;;;;;;;6244234;23;20401;-56
2022/05/21 02:54:44;;;;;;;3.53;3.23;;;;;;;;;;6235371;23;20480;-54
2022/05/21 02:57:10;;;;;;;4.73;3.50;;;;;;;;;;6239481;23;20433;-55
2022/05/21 02:59:59;;;;;;;3.97;3.67;;;;;;;;;;6236621;23;20473;-55
2022/05/21 03:02:27;;;;;;;4.33;3.93;;;;;;;;;;6234868;23;20444;-54
2022/05/21 03:04:53;;;;;;;3.67;3.27;;;;;;;;;;6240973;23;20887;-54
2022/05/21 03:07:19;;;;;;;4.10;3.73;;;;;;;;;;6227978;23;20434;-55
2022/05/21 03:12:30;;;;;;;4.73;3.97;;;;;;;;;;6229250;23;20370;-55
2022/05/21 03:14:56;;;;;;;5.00;4.37;;;;;;;;;;6241224;23;20822;-55
2022/05/21 03:17:22;;;;;;;4.70;3.90;;;;;;;;;;6228243;23;20390;-55
2022/05/21 03:19:49;;;;;;;5.27;3.97;;;;;;;;;;6241721;23;20717;-55
2022/05/21 03:22:15;;;;;;;5.55;4.22;;;;;;;;;;6237621;22;20445;-55
2022/05/21 03:24:41;;;;;;;7.80;4.47;;;;;;;;;;6241020;23;20611;-55
2022/05/21 03:27:07;;;;;;;5.47;4.27;;;;;;;;;;6236951;23;20502;-54
2022/05/21 03:29:37;;;;;;;5.20;4.70;;;;;;;;;;6240639;23;20429;-54
2022/05/21 03:32:04;;;;;;;4.43;4.03;;;;;;;;;;6220614;23;20740;-55
2022/05/21 03:34:30;;;;;;;10.87;4.80;;;;;;;;;;6243930;23;20366;-55
2022/05/21 03:36:56;;;;;;;4.23;3.83;;;;;;;;;;6227309;22;20378;-55
2022/05/21 03:39:23;;;;;;;4.87;4.43;;;;;;;;;;6241739;23;20402;-55
2022/05/21 03:41:49;;;;;;;4.37;3.80;;;;;;;;;;6236873;22;20382;-56
2022/05/21 03:44:15;;;;;;;4.23;3.60;;;;;;;;;;6239950;23;20897;-55
2022/05/21 03:46:42;;;;;;;4.37;3.97;;;;;;;;;;6227249;23;20441;-55
2022/05/21 03:49:08;;;;;;;6.60;3.83;;;;;;;;;;6241216;23;20448;-56
2022/05/21 03:51:34;;;;;;;3.83;3.40;;;;;;;;;;6227258;23;20811;-54
2022/05/21 03:54:00;;;;;;;5.90;4.50;;;;;;;;;;6243075;23;20382;-54
2022/05/21 03:56:26;;;;;;;4.33;3.93;;;;;;;;;;6236961;23;20413;-54
2022/05/21 03:58:52;;;;;;;4.27;3.87;;;;;;;;;;6241777;23;20367;-53
2022/05/21 04:01:18;;;;;;;3.97;3.57;;;;;;;;;;6224231;23;20419;-55
2022/05/21 04:03:45;;;;;;;4.97;3.97;;;;;;;;;;6242468;23;20394;-54
2022/05/21 04:06:12;;;;;;;4.97;4.30;;;;;;;;;;6218186;23;20426;-54
2022/05/21 04:08:39;;;;;;;4.17;3.17;;;;;;;;;;6241398;22;20382;-54
2022/05/21 04:11:08;;;;;;;3.90;3.60;;;;;;;;;;6236674;22;20370;-54
2022/05/21 04:13:36;;;;;;;5.70;3.40;;;;;;;;;;6242308;23;20748;-54
2022/05/21 04:16:04;;;;;;;3.70;3.37;;;;;;;;;;6235449;23;20369;-54
2022/05/21 04:18:30;;;;;;;6.00;3.60;;;;;;;;;;6240870;23;20366;-53
2022/05/21 04:20:56;;;;;;;3.83;3.20;;;;;;;;;;6222784;23;20431;-53
2022/05/21 04:23:22;;;;;;;7.37;3.60;;;;;;;;;;6242363;23;20389;-55
2022/05/21 04:25:48;;;;;;;3.33;3.03;;;;;;;;;;6235361;23;20139;-54
2022/05/21 04:28:19;;;;;;;6.40;3.50;;;;;;;;;;6241157;23;20212;-54
2022/05/21 04:30:45;;;;;;;4.80;3.23;;;;;;;;;;6235487;23;20362;-53
2022/05/21 04:33:11;;;;;;;6.10;3.27;;;;;;;;;;6241890;23;20766;-54
2022/05/21 04:38:21;;;;;;;4.40;3.53;;;;;;;;;;6243245;23;20686;-54
2022/05/21 04:40:53;;;;;;;5.67;3.80;;;;;;;;;;6224363;23;20409;-55
2022/05/21 04:43:19;;;;;;;5.63;3.83;;;;;;;;;;6240758;23;20394;-55
2022/05/21 04:45:46;;;;;;;3.50;3.20;;;;;;;;;;6235933;23;20421;-54
2022/05/21 04:48:11;;;;;;;5.97;3.30;;;;;;;;;;6240424;23;20389;-54
2022/05/21 04:50:38;;;;;;;7.80;3.40;;;;;;;;;;6236744;23;20383;-54
2022/05/21 04:53:11;;;;;;;7.30;3.37;;;;;;;;;;6216140;23;20544;-55
2022/05/21 04:55:51;;;;;;;4.50;3.23;;;;;;;;;;6239033;23;20402;-54
2022/05/21 04:58:18;;;;;;;3.33;3.03;;;;;;;;;;6234724;23;20386;-55
2022/05/21 05:01:15;;;;;;;3.23;2.90;;;;;;;;;;6239277;23;20385;-56
2022/05/21 05:03:42;;;;;;;3.67;3.23;;;;;;;;;;6243281;23;20420;-55
2022/05/21 05:06:13;;;;;;;7.63;2.80;;;;;;;;;;6239642;23;20429;-55
2022/05/21 05:08:39;;;;;;;11.30;3.30;;;;;;;;;;6241339;23;20385;-53
2022/05/21 05:11:32;;;;;;;4.77;3.30;;;;;;;;;;6239547;23;20450;-56
2022/05/21 05:13:58;;;;;;;9.57;5.03;;;;;;;;;;6242225;22;20151;-54
2022/05/21 05:16:24;;;;;;;3.90;3.10;;;;;;;;;;6236240;23;20848;-54
2022/05/21 05:18:51;;;;;;;2.90;2.43;;;;;;;;;;6241541;23;20462;-55
2022/05/21 05:21:19;;;;;;;4.50;3.17;;;;;;;;;;6230321;23;20500;-54
2022/05/21 05:23:45;;;;;;;2.57;2.37;;;;;;;;;;6243860;23;20378;-52
2022/05/21 05:26:42;;;;;;;3.07;2.30;;;;;;;;;;6238097;23;20432;-55
2022/05/21 05:29:09;;;;;;;2.77;2.57;;;;;;;;;;6240936;23;20162;-53
2022/05/21 05:31:36;;;;;;;3.57;2.87;;;;;;;;;;6234755;22;20374;-55
2022/05/21 05:34:05;;;;;;;2.80;2.50;;;;;;;;;;6241106;23;20434;-55
2022/05/21 05:36:31;;;;;;;5.23;2.90;;;;;;;;;;6232464;23;20465;-55
2022/05/21 05:39:02;;;;;;;3.53;3.13;;;;;;;;;;6242606;23;20359;-55
2022/05/21 05:41:29;;;;;;;3.20;2.80;;;;;;;;;;6238613;22;20366;-53
2022/05/21 05:43:57;;;;;;;3.33;2.73;;;;;;;;;;6214222;23;20374;-55
2022/05/21 05:46:23;;;;;;;2.93;2.40;;;;;;;;;;6196884;23;20449;-53
2022/05/21 05:48:49;;;;;;;2.90;2.57;;;;;;;;;;6238695;23;20479;-54
2022/05/21 05:51:19;;;;;;;3.00;2.50;;;;;;;;;;6233923;23;20772;-54
2022/05/21 05:53:45;;;;;;;6.67;2.73;;;;;;;;;;6237849;23;20373;-53
2022/05/21 05:56:11;;;;;;;3.93;2.30;;;;;;;;;;6236009;23;20465;-54
2022/05/21 06:01:25;;;;;;;3.47;3.17;;;;;;;;;;6228920;23;20372;-54
2022/05/21 06:03:51;;;;;;;3.33;2.37;;;;;;;;;;6239875;23;20379;-54
2022/05/21 06:06:17;;;;;;;2.57;1.90;;;;;;;;;;6200200;23;20448;-54
2022/05/21 06:08:46;;;;;;;2.33;2.00;;;;;;;;;;6237584;23;21098;-52
2022/05/21 06:11:12;;;;;;;4.37;2.20;;;;;;;;;;6233065;23;20370;-54
2022/05/21 06:13:39;;;;;;;4.93;2.30;;;;;;;;;;6213103;23;20382;-54
2022/05/21 06:16:42;;;;;;;2.40;1.90;;;;;;;;;;6238495;23;20370;-62
2022/05/21 06:19:14;;;;;;;2.27;2.03;;;;;;;;;;6229215;22;21063;-54
2022/05/21 06:21:51;;;;;;;2.63;2.10;;;;;;;;;;6232845;23;20643;-57
2022/05/21 06:24:22;;;;;;;2.43;1.90;;;;;;;;;;6234940;23;20166;-54
2022/05/21 06:26:48;;;;;;;2.57;1.57;;;;;;;;;;6258391;22;20495;-55
2022/05/21 06:29:14;;;;;;;2.07;1.80;;;;;;;;;;6233722;23;21107;-55
2022/05/21 06:32:15;;;;;;;2.23;2.00;;;;;;;;;;6239419;23;20166;-55
2022/05/21 06:34:42;;;;;;;3.27;1.90;;;;;;;;;;6236032;23;20724;-54
2022/05/21 06:37:09;;;;;;;3.70;1.90;;;;;;;;;;6227736;22;20973;-53
2022/05/21 06:39:35;;;;;;;1.97;1.60;;;;;;;;;;6216368;23;20382;-61
2022/05/21 06:42:02;;;;;;;3.63;2.20;;;;;;;;;;6237354;23;20382;-55
2022/05/21 06:44:28;;;;;;;2.87;2.03;;;;;;;;;;6225985;22;20761;-55
2022/05/21 06:46:54;;;;;;;1.93;1.60;;;;;;;;;;6231234;23;20429;-54
2022/05/21 06:49:21;;;;;;;3.97;1.40;;;;;;;;;;6243559;23;20370;-55
2022/05/21 06:51:52;;;;;;;1.60;1.40;;;;;;;;;;6225023;23;20804;-55
2022/05/21 06:54:18;;;;;;;3.67;1.57;;;;;;;;;;6238870;23;20460;-55
2022/05/21 06:56:45;;;;;;;2.10;1.30;;;;;;;;;;6209188;23;20765;-56
2022/05/21 06:59:11;;;;;;;1.77;1.40;;;;;;;;;;6239735;23;20377;-55
2022/05/21 07:01:37;;;;;;;3.50;2.20;;;;;;;;;;6229543;22;20389;-56
2022/05/21 07:04:03;;;;;;;1.70;1.30;;;;;;;;;;6233977;23;20557;-57
2022/05/21 07:09:20;;;;;;;3.60;2.00;;;;;;;;;;6241665;23;20400;-55
2022/05/21 07:11:51;;;;;;;5.33;1.53;;;;;;;;;;6226990;22;20873;-55
2022/05/21 07:14:17;;;;;;;5.23;1.70;;;;;;;;;;6213855;23;20932;-54
2022/05/21 07:16:50;;;;;;;2.87;1.53;;;;;;;;;;6239036;22;20459;-55
2022/05/21 07:19:16;;;;;;;2.33;1.70;;;;;;;;;;6242319;23;20378;-55
2022/05/21 07:21:42;;;;;;;1.70;1.30;;;;;;;;;;6239138;23;20469;-54
2022/05/21 07:24:08;;;;;;;2.33;1.50;;;;;;;;;;6244534;23;20895;-54
2022/05/21 07:26:34;;;;;;;1.30;1.00;;;;;;;;;;6233722;23;20418;-56
2022/05/21 07:29:19;;;;;;;2.07;1.47;;;;;;;;;;6240323;23;20390;-55
2022/05/21 07:31:45;;;;;;;1.50;0.90;;;;;;;;;;6237803;23;20151;-56
2022/05/21 07:34:11;;;;;;;1.87;1.20;;;;;;;;;;6244661;23;20382;-56
2022/05/21 07:36:37;;;;;;;2.60;0.90;;;;;;;;;;6240577;22;20143;-53
2022/05/21 07:39:10;;;;;;;2.23;1.10;;;;;;;;;;6246214;23;20377;-55
2022/05/21 07:41:36;;;;;;;2.90;1.20;;;;;;;;;;6237749;23;20723;-54
2022/05/21 07:44:02;;;;;;;1.40;1.07;;;;;;;;;;6244062;23;20355;-55
2022/05/21 07:46:28;;;;;;;2.17;1.20;;;;;;;;;;6195067;23;20449;-54
2022/05/21 07:48:54;;;;;;;3.00;1.90;;;;;;;;;;6241593;23;20371;-54
2022/05/21 07:51:20;;;;;;;3.33;0.90;;;;;;;;;;6227591;23;20186;-54
2022/05/21 07:53:46;;;;;;;2.03;1.13;;;;;;;;;;6240917;23;20850;-55
2022/05/21 07:56:13;;;;;;;1.70;0.90;;;;;;;;;;6234664;23;21068;-56
2022/05/21 07:58:40;;;;;;;1.63;1.03;;;;;;;;;;6243206;22;20370;-56
2022/05/21 08:01:08;;;;;;;2.40;0.80;;;;;;;;;;6219946;22;20390;-54
2022/05/21 08:03:34;;;;;;;1.40;0.80;;;;;;;;;;6242656;22;20375;-54
2022/05/21 08:06:08;;;;;;;1.30;0.73;;;;;;;;;;6239861;23;20913;-56
2022/05/21 08:08:34;;;;;;;3.30;2.13;;;;;;;;;;6240632;23;20781;-55
2022/05/21 08:11:01;;;;;;;1.67;0.90;;;;;;;;;;6241411;23;20354;-55
2022/05/21 08:13:27;;;;;;;1.73;0.87;;;;;;;;;;6216689;23;20414;-54
2022/05/21 08:15:54;;;;;;;2.47;1.00;;;;;;;;;;6230292;23;20493;-56
2022/05/21 08:18:20;;;;;;;1.40;0.90;;;;;;;;;;6245767;23;20374;-55
2022/05/21 08:20:46;;;;;;;1.53;0.90;;;;;;;;;;6228356;23;20405;-56
2022/05/21 08:29:07;;;;;;;1.93;1.00;;;;;;;;;;6229431;23;21021;-54
2022/05/21 08:31:34;;;;;;;2.70;1.03;;;;;;;;;;6240919;23;20378;-55
2022/05/21 08:34:19;;;;;;;1.40;0.80;;;;;;;;;;6236413;23;20391;-56
2022/05/21 08:36:45;;;;;;;1.60;0.77;;;;;;;;;;6238295;23;20755;-56
2022/05/21 08:39:11;;;;;;;1.20;0.83;;;;;;;;;;6217254;23;21240;-54
2022/05/21 08:41:39;;;;;;;1.30;0.80;;;;;;;;;;6242632;23;20370;-54
2022/05/21 08:44:06;;;;;;;3.10;1.00;;;;;;;;;;6220928;23;20370;-57
2022/05/21 08:46:36;;;;;;;1.10;0.60;;;;;;;;;;6242871;23;20434;-56
2022/05/21 08:49:08;;;;;;;1.13;0.70;;;;;;;;;;6228767;23;20469;-57
2022/05/21 08:51:41;;;;;;;1.67;0.83;;;;;;;;;;6243379;23;20932;-56
2022/05/21 08:54:07;;;;;;;1.30;0.80;;;;;;;;;;6218880;23;20754;-56
2022/05/21 08:56:37;;;;;;;1.30;0.80;;;;;;;;;;6226339;23;20401;-54
2022/05/21 08:59:07;;;;;;;1.67;0.93;;;;;;;;;;6239222;23;20370;-55
2022/05/21 09:01:44;;;;;;;1.23;0.80;;;;;;;;;;6196262;23;20385;-55
2022/05/21 09:04:14;;;;;;;2.93;0.97;;;;;;;;;;6237286;23;20382;-54
2022/05/21 09:06:52;;;;;;;5.93;1.07;;;;;;;;;;6221119;22;20785;-54
2022/05/21 09:09:31;;;;;;;2.00;0.87;;;;;;;;;;6218559;23;20370;-56
2022/05/21 09:12:09;;;;;;;2.10;1.00;;;;;;;;;;6234413;23;20378;-56
2022/05/21 09:14:49;;;;;;;3.60;0.70;;;;;;;;;;6242176;23;20441;-56
2022/05/21 09:17:16;;;;;;;2.13;1.00;;;;;;;;;;6233661;23;20424;-57
2022/05/21 09:19:49;;;;;;;1.47;0.70;;;;;;;;;;6240560;23;20380;-54
2022/05/21 09:22:16;;;;;;;1.23;0.80;;;;;;;;;;6233168;23;20379;-54
2022/05/21 09:24:52;;;;;;;3.20;0.90;;;;;;;;;;6241389;23;20391;-55
2022/05/21 09:27:32;;;;;;;3.57;0.90;;;;;;;;;;6231350;23;20459;-54
2022/05/21 09:30:11;;;;;;;1.40;0.90;;;;;;;;;;6238095;23;20366;-54
2022/05/21 09:32:40;;;;;;;2.37;0.90;;;;;;;;;;6224228;22;20389;-55
2022/05/21 09:35:14;;;;;;;1.60;0.83;;;;;;;;;;6236280;23;20382;-56
2022/05/21 09:37:40;;;;;;;2.40;1.20;;;;;;;;;;6208099;23;20382;-56
2022/05/21 09:40:26;;;;;;;2.17;0.80;;;;;;;;;;6229026;23;20374;-55
2022/05/21 09:45:49;;;;;;;1.83;0.90;;;;;;;;;;6228133;23;21045;-55
2022/05/21 09:48:24;;;;;;;1.40;0.80;;;;;;;;;;6235174;22;20382;-55
2022/05/21 09:51:03;;;;;;;2.90;1.03;;;;;;;;;;6229684;22;20376;-55
2022/05/21 09:53:37;;;;;;;1.40;0.90;;;;;;;;;;6238419;22;20389;-56
2022/05/21 09:56:04;;;;;;;1.97;1.00;;;;;;;;;;6215593;23;20745;-55
2022/05/21 09:58:35;;;;;;;2.10;0.97;;;;;;;;;;6231157;23;20383;-56
2022/05/21 10:01:01;;;;;;;2.10;1.03;;;;;;;;;;6218848;23;20820;-56
2022/05/21 10:06:32;;;;;;;1.40;0.83;;;;;;;;;;6226072;23;20423;-56
2022/05/21 10:12:13;;;;;;;3.03;1.20;;;;;;;;;;6242612;23;20464;-59
2022/05/21 10:14:41;;;;;;;1.90;1.30;;;;;;;;;;6228425;23;20365;-53
2022/05/21 10:17:27;;;;;;;1.60;0.87;;;;;;;;;;6241539;23;20374;-56
2022/05/21 10:19:55;;;;;;;2.80;1.53;;;;;;;;;;6240891;23;20402;-55
2022/05/21 10:22:43;;;;;;;1.60;1.00;;;;;;;;;;6241121;23;20442;-54
2022/05/21 10:25:19;;;;;;;1.40;0.90;;;;;;;;;;6223168;22;20872;-56
2022/05/21 10:27:54;;;;;;;3.47;1.27;;;;;;;;;;6241020;23;20429;-56
2022/05/21 10:30:30;;;;;;;3.97;1.00;;;;;;;;;;6228833;23;20381;-54
2022/05/21 10:33:15;;;;;;;1.40;0.80;;;;;;;;;;6242720;22;20445;-55
2022/05/21 10:36:17;;;;;;;2.30;1.07;;;;;;;;;;6219892;23;20431;-55
2022/05/21 10:39:25;;;;;;;5.80;1.00;;;;;;;;;;6182112;22;20412;-56
2022/05/21 10:42:01;;;;;;;1.77;1.10;;;;;;;;;;6227858;22;20362;-54
2022/05/21 10:44:38;;;;;;;1.73;0.97;;;;;;;;;;6242139;22;20366;-55
2022/05/21 10:47:30;;;;;;;2.50;1.30;;;;;;;;;;6225149;23;20438;-54
2022/05/21 10:50:19;;;;;;;3.17;1.33;;;;;;;;;;6232199;23;20413;-56
2022/05/21 10:53:08;;;;;;;1.70;1.13;;;;;;;;;;6240190;22;20405;-55
2022/05/21 10:55:41;;;;;;;2.07;1.10;;;;;;;;;;6233334;23;20444;-55
2022/05/21 10:58:30;;;;;;;2.73;1.40;;;;;;;;;;6240467;22;20382;-55
2022/05/21 11:01:01;;;;;;;1.40;1.10;;;;;;;;;;6223599;23;20474;-54
2022/05/21 11:03:33;;;;;;;5.10;1.33;;;;;;;;;;6234976;23;20382;-56
2022/05/21 11:06:09;;;;;;;2.03;1.17;;;;;;;;;;6225895;23;20362;-55
2022/05/21 11:08:35;;;;;;;3.93;1.17;;;;;;;;;;6242741;23;20385;-54
2022/05/21 11:11:08;;;;;;;1.50;0.97;;;;;;;;;;6237445;23;20354;-55
2022/05/21 11:13:42;;;;;;;2.10;1.33;;;;;;;;;;6237760;23;20377;-55
2022/05/21 11:16:08;;;;;;;2.90;1.00;;;;;;;;;;6224587;23;20370;-55
2022/05/21 11:18:46;;;;;;;1.87;1.10;;;;;;;;;;6240011;23;20366;-58
2022/05/21 11:21:12;;;;;;;3.87;1.10;;;;;;;;;;6221094;23;20769;-53
2022/05/21 11:23:46;;;;;;;2.00;1.17;;;;;;;;;;6238592;23;20391;-54
2022/05/21 11:26:25;;;;;;;1.97;1.20;;;;;;;;;;6239584;23;20492;-56
2022/05/21 11:28:52;;;;;;;2.13;0.90;;;;;;;;;;6237989;23;20405;-52
2022/05/21 11:37:24;;;;;;;2.13;1.00;;;;;;;;;;6235542;23;20385;-54
2022/05/21 11:39:53;;;;;;;2.33;1.00;;;;;;;;;;6242420;22;20370;-55
2022/05/21 11:42:28;;;;;;;2.20;1.03;;;;;;;;;;6226656;23;20439;-55
2022/05/21 11:44:56;;;;;;;3.63;1.13;;;;;;;;;;6235546;22;20723;-53
2022/05/21 11:47:37;;;;;;;3.37;0.90;;;;;;;;;;6221376;23;20756;-55
2022/05/21 11:50:04;;;;;;;3.23;1.00;;;;;;;;;;6215160;23;20386;-57
2022/05/21 11:56:04;;;;;;;2.33;1.10;;;;;;;;;;6235377;23;20692;-54
2022/05/21 11:58:48;;;;;;;3.10;1.20;;;;;;;;;;6222587;22;20417;-55
2022/05/21 12:01:33;;;;;;;2.00;1.03;;;;;;;;;;6236286;23;20374;-55
2022/05/21 12:04:35;;;;;;;1.87;1.17;;;;;;;;;;6240221;23;20482;-54
2022/05/21 12:07:19;;;;;;;1.90;1.07;;;;;;;;;;6238301;23;20444;-57
2022/05/21 12:10:02;;;;;;;2.10;0.90;;;;;;;;;;6239907;22;20377;-57
2022/05/21 12:12:28;;;;;;;2.33;1.30;;;;;;;;;;6232368;23;20386;-55
2022/05/21 12:15:26;;;;;;;3.20;1.20;;;;;;;;;;6241578;23;20369;-56
2022/05/21 12:17:52;;;;;;;1.93;0.93;;;;;;;;;;6205649;23;20385;-54
2022/05/21 12:20:39;;;;;;;2.90;1.20;;;;;;;;;;6241442;23;20378;-54
2022/05/21 12:23:04;;;;;;;2.77;1.10;;;;;;;;;;6224883;23;20902;-55
2022/05/21 12:25:43;;;;;;;2.50;0.93;;;;;;;;;;6243211;23;20398;-56
2022/05/21 12:28:10;;;;;;;2.90;1.20;;;;;;;;;;6239338;22;20425;-56
2022/05/21 12:30:38;;;;;;;2.77;1.10;;;;;;;;;;6237349;23;20467;-56
2022/05/21 12:33:06;;;;;;;1.80;1.00;;;;;;;;;;6232140;22;20371;-55
2022/05/21 12:35:52;;;;;;;1.73;1.00;;;;;;;;;;6240987;22;20405;-55
2022/05/21 12:38:25;;;;;;;3.23;1.40;;;;;;;;;;6226183;23;20413;-55
2022/05/21 12:40:53;;;;;;;6.23;1.10;;;;;;;;;;6242903;23;20845;-55
2022/05/21 12:43:19;;;;;;;3.70;0.90;;;;;;;;;;6239509;23;20400;-55
2022/05/21 12:45:51;;;;;;;3.10;0.90;;;;;;;;;;6242750;23;20402;-55
2022/05/21 12:48:22;;;;;;;3.30;1.33;;;;;;;;;;6233354;23;20390;-56
2022/05/21 12:50:49;;;;;;;4.20;1.27;;;;;;;;;;6242953;23;20432;-52
2022/05/21 12:53:24;;;;;;;2.70;1.17;;;;;;;;;;6234310;23;20397;-55
2022/05/21 12:55:59;;;;;;;2.53;1.00;;;;;;;;;;6241458;23;20385;-53
2022/05/21 12:58:25;;;;;;;2.17;1.10;;;;;;;;;;6233257;23;20449;-54
2022/05/21 13:00:54;;;;;;;2.00;0.80;;;;;;;;;;6240968;23;20378;-55
2022/05/21 13:03:22;;;;;;;1.53;0.93;;;;;;;;;;6228490;23;20383;-55
2022/05/21 13:05:52;;;;;;;1.80;0.90;;;;;;;;;;6230879;23;20375;-55
2022/05/21 13:08:18;;;;;;;2.60;1.20;;;;;;;;;;6238353;23;20390;-58
2022/05/21 13:10:54;;;;;;;2.17;0.90;;;;;;;;;;6242042;23;20458;-55
2022/05/21 13:13:20;;;;;;;2.00;1.07;;;;;;;;;;6236278;23;20366;-54
2022/05/21 13:16:07;;;;;;;3.20;1.23;;;;;;;;;;6228183;23;20853;-57
2022/05/21 13:18:39;;;;;;;2.50;1.20;;;;;;;;;;6239266;23;20382;-54
2022/05/21 13:21:24;;;;;;;2.53;0.70;;;;;;;;;;6237998;23;20454;-54
2022/05/21 13:23:59;;;;;;;2.97;0.97;;;;;;;;;;6240107;23;20919;-54
2022/05/21 13:26:27;;;;;;;1.53;0.80;;;;;;;;;;6231843;23;20429;-53
2022/05/21 13:29:10;;;;;;;2.33;1.00;;;;;;;;;;6212482;23;20382;-53
2022/05/21 13:31:36;;;;;;;1.70;0.93;;;;;;;;;;6225350;23;20369;-53
2022/05/21 13:34:02;;;;;;;1.97;1.13;;;;;;;;;;6238197;23;20374;-53
2022/05/21 13:36:33;;;;;;;6.37;1.67;;;;;;;;;;6223871;23;20496;-55
2022/05/21 13:39:00;;;;;;;2.07;1.00;;;;;;;;;;6229475;22;20147;-53
2022/05/21 13:41:26;;;;;;;2.23;1.20;;;;;;;;;;6236347;23;20766;-51
2022/05/21 13:43:52;;;;;;;2.17;1.10;;;;;;;;;;6226345;23;20773;-51
2022/05/21 13:46:22;;;;;;;5.67;1.50;;;;;;;;;;6237299;23;20646;-53
2022/05/21 13:48:49;;;;;;;2.90;1.27;;;;;;;;;;6220250;23;20700;-53
2022/05/21 13:51:15;;;;;;;2.90;1.10;;;;;;;;;;6238323;23;20378;-53
2022/05/21 13:53:41;;;;;;;6.13;1.10;;;;;;;;;;6241736;23;20397;-54
2022/05/21 13:56:25;;;;;;;6.07;1.57;;;;;;;;;;6240531;23;20386;-53
2022/05/21 13:59:04;;;;;;;2.30;1.10;;;;;;;;;;6221447;23;20889;-55
2022/05/21 14:01:31;;;;;;;3.00;0.93;;;;;;;;;;6238225;23;20382;-54
2022/05/21 14:04:09;;;;;;;3.57;0.87;;;;;;;;;;6225445;23;21021;-54
2022/05/21 14:06:42;;;;;;;2.73;1.20;;;;;;;;;;6239731;23;20425;-55
2022/05/21 14:09:15;;;;;;;2.53;1.23;;;;;;;;;;6222697;23;20459;-54
2022/05/21 14:11:48;;;;;;;2.67;1.00;;;;;;;;;;6240770;23;20366;-54
2022/05/21 14:14:15;;;;;;;3.57;1.10;;;;;;;;;;6227852;23;20421;-55
2022/05/21 14:16:42;;;;;;;1.90;1.07;;;;;;;;;;6211118;23;20378;-55
2022/05/21 14:19:17;;;;;;;3.97;1.20;;;;;;;;;;6223730;22;20704;-55
2022/05/21 14:22:21;;;;;;;2.00;1.20;;;;;;;;;;6241213;22;20381;-54
2022/05/21 14:24:48;;;;;;;4.40;1.03;;;;;;;;;;6126376;23;20509;-55
2022/05/21 14:27:27;;;;;;;3.50;1.10;;;;;;;;;;6145959;23;20436;-54
2022/05/21 14:29:57;;;;;;;4.90;1.47;;;;;;;;;;6194009;22;20366;-54
2022/05/21 14:32:39;;;;;;;1.60;0.93;;;;;;;;;;6241045;22;20389;-55
2022/05/21 14:35:15;;;;;;;4.20;1.60;;;;;;;;;;6224534;23;20673;-57
2022/05/21 14:37:41;;;;;;;3.23;1.33;;;;;;;;;;6239763;23;20366;-55
2022/05/21 14:40:07;;;;;;;2.43;1.10;;;;;;;;;;6228160;23;20564;-53
2022/05/21 14:42:33;;;;;;;2.03;1.30;;;;;;;;;;6240913;23;20375;-55
2022/05/21 14:45:19;;;;;;;2.30;1.17;;;;;;;;;;6238558;22;20375;-55
2022/05/21 14:47:51;;;;;;;2.60;1.30;;;;;;;;;;6239177;23;20437;-54
2022/05/21 14:53:29;;;;;;;8.40;1.70;;;;;;;;;;6227158;23;20995;-54
2022/05/21 14:55:57;;;;;;;3.60;1.17;;;;;;;;;;6225195;22;20420;-55
2022/05/21 14:58:25;;;;;;;2.40;1.77;;;;;;;;;;6237504;23;20857;-54
2022/05/21 15:00:51;;;;;;;3.10;1.60;;;;;;;;;;6208163;23;20378;-55
2022/05/21 15:03:17;;;;;;;4.63;1.30;;;;;;;;;;6221773;22;20374;-56
2022/05/21 15:05:44;;;;;;;2.43;1.37;;;;;;;;;;6240978;23;20374;-54
2022/05/21 15:08:18;;;;;;;3.03;1.43;;;;;;;;;;6225631;22;20454;-55
2022/05/21 15:10:45;;;;;;;2.67;1.00;;;;;;;;;;6237128;23;20374;-53
2022/05/21 15:13:11;;;;;;;2.60;1.30;;;;;;;;;;6240191;23;20474;-53
2022/05/21 15:15:36;;;;;;;3.13;1.47;;;;;;;;;;6222382;23;20406;-54
2022/05/21 15:18:03;;;;;;;3.00;1.10;;;;;;;;;;6237367;23;20374;-55
2022/05/21 15:20:36;;;;;;;2.13;1.33;;;;;;;;;;6227556;23;20408;-54
2022/05/21 15:23:02;;;;;;;3.10;1.53;;;;;;;;;;6239064;22;20406;-52
2022/05/21 15:25:29;;;;;;;2.27;1.23;;;;;;;;;;6232744;23;20374;-52
2022/05/21 15:27:56;;;;;;;2.63;1.20;;;;;;;;;;6240300;23;20429;-54
2022/05/21 15:30:23;;;;;;;2.10;1.20;;;;;;;;;;6235734;23;20370;-53
2022/05/21 15:32:49;;;;;;;2.93;1.40;;;;;;;;;;6243835;22;20726;-53
2022/05/21 15:35:15;;;;;;;3.57;1.53;;;;;;;;;;6238470;23;20477;-57
2022/05/21 15:37:41;;;;;;;5.10;1.30;;;;;;;;;;6243594;23;20443;-54
2022/05/21 15:40:11;;;;;;;1.90;1.20;;;;;;;;;;6233054;23;20767;-54
2022/05/21 15:42:37;;;;;;;2.63;1.23;;;;;;;;;;6243461;23;20707;-55
2022/05/21 15:45:07;;;;;;;2.80;1.50;;;;;;;;;;6219657;22;20377;-55
2022/05/21 15:47:34;;;;;;;3.60;1.20;;;;;;;;;;6238259;23;20461;-55
2022/05/21 15:50:00;;;;;;;2.33;1.30;;;;;;;;;;6223040;22;20370;-55
2022/05/21 15:52:26;;;;;;;4.00;1.13;;;;;;;;;;6238684;23;20744;-55
2022/05/21 15:54:53;;;;;;;2.90;1.20;;;;;;;;;;6223822;23;20140;-55